No particular awareness of the weather is required.    There are no Weather-warnings


Meteo18 Weather Cam more information Meteo18 Weather Cam


Thunder radar more information blitzortung!


Rain radar more information rain snow radar


Visit our other weather sites:

Template documentation
and downloads

And another site



Weather Underground History page Text

Daily Summary for February 12, 2018 Units:  Both    English   Metric
« Previous Day
Next Day »
Daily Weekly Monthly Yearly Custom
  High: Low: Average:
Temperature: TemperatureC °F /  -17.8 °C -2.2 °F /  -19 °C 1.4 °F /  -17 °C
Dew Point: DewpointC °F /  -17.8 °C -3.3 °F /  -19.6 °C -1.5 °F /  -18.6 °C
Humidity: Humidity % 59 % 82 %
Wind Speed: WindSpeedKMH mph /  0 km/h - 2.5 mph /  4 km/h
Wind Gust: WindSpeedGustKMH mph /  0 km/h - -
Wind:- - West
Pressure: PressurehPa in /  0 hPa 1014.8 in /  34361.1 hPa -
Precipitation: 0.0 in /  0 mm    
Historical Graphs
 
 
Tabular Data for February 12, 2018
Time Temperature Dew Point Pressure Wind Wind Speed Wind Gust Humidity Rainfall Rate (Hourly)
TemperatureC °F /  -17.8 °C DewpointC °F /  -17.8 °C PressurehPa in /  0 hPa Calm     Humidity % HourlyPrecipMM in /  0 mm
00:05 2.4 °F /  -16.4 °C 0.5 °F /  -17.5 °C 1014.8 in /  34361.1 hPa WNW 6.4 mph /  10.3 km/h 12.9 mph /  20.8 km/h 87 % 0.0 in /  0 mm
00:11 2.3 °F /  -16.5 °C 0.4 °F /  -17.6 °C 1014.8 in /  34361.1 hPa West 11.1 mph /  17.9 km/h 14.5 mph /  23.3 km/h 87 % 0.0 in /  0 mm
00:17 2.3 °F /  -16.5 °C 0.4 °F /  -17.6 °C 1014.8 in /  34361.1 hPa West 4.7 mph /  7.6 km/h 11.3 mph /  18.2 km/h 87 % 0.0 in /  0 mm
00:23 2.2 °F /  -16.6 °C 0.4 °F /  -17.6 °C 1015.1 in /  34371.3 hPa WNW 7.9 mph /  12.7 km/h 12.9 mph /  20.8 km/h 88 % 0.0 in /  0 mm
00:29 2.1 °F /  -16.6 °C 0.3 °F /  -17.6 °C 1015.1 in /  34371.3 hPa WSW 14.3 mph /  23 km/h 22.5 mph /  36.2 km/h 88 % 0.0 in /  0 mm
00:35 2.1 °F /  -16.6 °C 0.3 °F /  -17.6 °C 1015.1 in /  34371.3 hPa West 19.5 mph /  31.4 km/h 19.5 mph /  31.4 km/h 88 % 0.0 in /  0 mm
00:41 2.1 °F /  -16.6 °C 0.3 °F /  -17.6 °C 1015.1 in /  34371.3 hPa WNW 6.4 mph /  10.3 km/h 20.9 mph /  33.6 km/h 88 % 0.0 in /  0 mm
00:47 1.9 °F /  -16.7 °C 0.1 °F /  -17.7 °C 1015.1 in /  34371.3 hPa WNW 3.2 mph /  5.1 km/h 11.3 mph /  18.2 km/h 88 % 0.0 in /  0 mm
00:53 1.8 °F /  -16.8 °C 0.0 °F /  -17.8 °C 1015.1 in /  34371.3 hPa WNW 3.2 mph /  5.1 km/h 11.3 mph /  18.2 km/h 88 % 0.0 in /  0 mm
00:59 1.8 °F /  -16.8 °C 0.0 °F /  -17.8 °C 1015.5 in /  34384.8 hPa WNW 7.9 mph /  12.7 km/h 22.5 mph /  36.2 km/h 88 % 0.0 in /  0 mm
01:05 1.8 °F /  -16.8 °C 0.0 °F /  -17.8 °C 1015.5 in /  34384.8 hPa WNW 6.4 mph /  10.3 km/h 11.3 mph /  18.2 km/h 88 % 0.0 in /  0 mm
01:11 1.7 °F /  -16.8 °C -0.1 °F /  -17.8 °C 1015.5 in /  34384.8 hPa West 7.9 mph /  12.7 km/h 12.9 mph /  20.8 km/h 88 % 0.0 in /  0 mm
01:17 1.6 °F /  -16.9 °C 0.0 °F /  -17.8 °C 1015.5 in /  34384.8 hPa NW 16.3 mph /  26.2 km/h 16.3 mph /  26.2 km/h 89 % 0.0 in /  0 mm
01:23 1.6 °F /  -16.9 °C -0.2 °F /  -17.9 °C 1015.8 in /  34395 hPa West 7.9 mph /  12.7 km/h 12.9 mph /  20.8 km/h 88 % 0.0 in /  0 mm
01:29 1.5 °F /  -16.9 °C -0.1 °F /  -17.8 °C 1015.8 in /  34395 hPa WSW 4.7 mph /  7.6 km/h 17.7 mph /  28.5 km/h 89 % 0.0 in /  0 mm
01:35 1.4 °F /  -17 °C -0.2 °F /  -17.9 °C 1015.8 in /  34395 hPa WNW 13.0 mph /  20.9 km/h 13.0 mph /  20.9 km/h 89 % 0.0 in /  0 mm
01:41 1.4 °F /  -17 °C -0.2 °F /  -17.9 °C 1015.8 in /  34395 hPa West 13.0 mph /  20.9 km/h 13.0 mph /  20.9 km/h 89 % 0.0 in /  0 mm
01:47 1.3 °F /  -17.1 °C -0.2 °F /  -17.9 °C 1015.8 in /  34395 hPa West 11.1 mph /  17.9 km/h 11.3 mph /  18.2 km/h 90 % 0.0 in /  0 mm
01:53 1.3 °F /  -17.1 °C -0.2 °F /  -17.9 °C 1015.8 in /  34395 hPa West 6.4 mph /  10.3 km/h 14.5 mph /  23.3 km/h 90 % 0.0 in /  0 mm
01:59 1.3 °F /  -17.1 °C -0.2 °F /  -17.9 °C 1015.8 in /  34395 hPa WNW 1.4 mph /  2.3 km/h 14.5 mph /  23.3 km/h 90 % 0.0 in /  0 mm
02:05 1.2 °F /  -17.1 °C -0.4 °F /  -18 °C 1015.8 in /  34395 hPa WNW 1.4 mph /  2.3 km/h 8.0 mph /  12.9 km/h 89 % 0.0 in /  0 mm
02:12 1.2 °F /  -17.1 °C -0.3 °F /  -17.9 °C 1016.1 in /  34405.1 hPa West 3.2 mph /  5.1 km/h 8.0 mph /  12.9 km/h 90 % 0.0 in /  0 mm
02:18 1.1 °F /  -17.2 °C -0.4 °F /  -18 °C 1016.1 in /  34405.1 hPa WNW 7.9 mph /  12.7 km/h 11.3 mph /  18.2 km/h 90 % 0.0 in /  0 mm
02:24 1.0 °F /  -17.2 °C -0.5 °F /  -18.1 °C 1016.1 in /  34405.1 hPa WNW 3.2 mph /  5.1 km/h 8.0 mph /  12.9 km/h 90 % 0.0 in /  0 mm
02:30 1.0 °F /  -17.2 °C -0.5 °F /  -18.1 °C 1016.1 in /  34405.1 hPa WNW 1.4 mph /  2.3 km/h 4.8 mph /  7.7 km/h 90 % 0.0 in /  0 mm
02:36 0.9 °F /  -17.3 °C -0.4 °F /  -18 °C 1016.1 in /  34405.1 hPa WNW 4.7 mph /  7.6 km/h 14.5 mph /  23.3 km/h 91 % 0.0 in /  0 mm
02:42 0.9 °F /  -17.3 °C -0.4 °F /  -18 °C 1016.1 in /  34405.1 hPa WNW 4.7 mph /  7.6 km/h 9.7 mph /  15.6 km/h 91 % 0.0 in /  0 mm
02:48 0.9 °F /  -17.3 °C -0.4 °F /  -18 °C 1016.1 in /  34405.1 hPa NW 6.4 mph /  10.3 km/h 9.7 mph /  15.6 km/h 91 % 0.0 in /  0 mm
02:54 0.9 °F /  -17.3 °C -0.4 °F /  -18 °C 1016.1 in /  34405.1 hPa NW 1.4 mph /  2.3 km/h 11.3 mph /  18.2 km/h 91 % 0.0 in /  0 mm
03:00 0.8 °F /  -17.3 °C -0.5 °F /  -18.1 °C 1016.1 in /  34405.1 hPa NW 4.7 mph /  7.6 km/h 8.0 mph /  12.9 km/h 91 % 0.0 in /  0 mm
03:06 0.8 °F /  -17.3 °C -0.5 °F /  -18.1 °C 1016.5 in /  34418.7 hPa WNW 7.9 mph /  12.7 km/h 14.5 mph /  23.3 km/h 91 % 0.0 in /  0 mm
03:12 0.8 °F /  -17.3 °C -0.5 °F /  -18.1 °C 1016.5 in /  34418.7 hPa WNW 11.1 mph /  17.9 km/h 14.5 mph /  23.3 km/h 91 % 0.0 in /  0 mm
03:18 0.7 °F /  -17.4 °C -0.6 °F /  -18.1 °C 1016.5 in /  34418.7 hPa NW 9.7 mph /  15.6 km/h 12.9 mph /  20.8 km/h 91 % 0.0 in /  0 mm
03:24 0.7 °F /  -17.4 °C -0.6 °F /  -18.1 °C 1016.5 in /  34418.7 hPa West 9.7 mph /  15.6 km/h 11.3 mph /  18.2 km/h 91 % 0.0 in /  0 mm
03:30 0.6 °F /  -17.4 °C -0.7 °F /  -18.2 °C 1016.5 in /  34418.7 hPa WNW 4.7 mph /  7.6 km/h 6.4 mph /  10.3 km/h 91 % 0.0 in /  0 mm
03:36 0.6 °F /  -17.4 °C -0.7 °F /  -18.2 °C 1016.5 in /  34418.7 hPa West 1.4 mph /  2.3 km/h 9.7 mph /  15.6 km/h 91 % 0.0 in /  0 mm
03:42 0.6 °F /  -17.4 °C -0.7 °F /  -18.2 °C 1016.5 in /  34418.7 hPa WNW 3.2 mph /  5.1 km/h 8.0 mph /  12.9 km/h 91 % 0.0 in /  0 mm
03:48 0.5 °F /  -17.5 °C -0.8 °F /  -18.2 °C 1016.5 in /  34418.7 hPa WNW 1.4 mph /  2.3 km/h 6.4 mph /  10.3 km/h 91 % 0.0 in /  0 mm
03:54 0.4 °F /  -17.6 °C -0.9 °F /  -18.3 °C 1016.5 in /  34418.7 hPa WNW 1.4 mph /  2.3 km/h 9.7 mph /  15.6 km/h 91 % 0.0 in /  0 mm
04:00 0.4 °F /  -17.6 °C -0.9 °F /  -18.3 °C 1016.5 in /  34418.7 hPa NW 1.4 mph /  2.3 km/h 8.0 mph /  12.9 km/h 91 % 0.0 in /  0 mm
04:06 0.3 °F /  -17.6 °C -0.8 °F /  -18.2 °C 1016.5 in /  34418.7 hPa WNW 1.4 mph /  2.3 km/h 9.7 mph /  15.6 km/h 92 % 0.0 in /  0 mm
04:12 0.3 °F /  -17.6 °C -0.8 °F /  -18.2 °C 1016.8 in /  34428.8 hPa West 1.4 mph /  2.3 km/h 9.7 mph /  15.6 km/h 92 % 0.0 in /  0 mm
04:18 0.3 °F /  -17.6 °C -1.0 °F /  -18.3 °C 1016.5 in /  34418.7 hPa WNW 4.7 mph /  7.6 km/h 8.0 mph /  12.9 km/h 91 % 0.0 in /  0 mm
04:24 0.2 °F /  -17.7 °C -0.9 °F /  -18.3 °C 1016.8 in /  34428.8 hPa WNW 3.2 mph /  5.1 km/h 6.4 mph /  10.3 km/h 92 % 0.0 in /  0 mm
04:30 0.2 °F /  -17.7 °C -0.9 °F /  -18.3 °C 1016.8 in /  34428.8 hPa West 7.9 mph /  12.7 km/h 9.7 mph /  15.6 km/h 92 % 0.0 in /  0 mm
04:36 0.2 °F /  -17.7 °C -0.9 °F /  -18.3 °C 1016.8 in /  34428.8 hPa WNW 1.4 mph /  2.3 km/h 9.7 mph /  15.6 km/h 92 % 0.0 in /  0 mm
04:42 0.1 °F /  -17.7 °C -1.0 °F /  -18.3 °C 1016.8 in /  34428.8 hPa Calm   8.0 mph /  12.9 km/h 92 % 0.0 in /  0 mm
04:48 0.1 °F /  -17.7 °C -1.0 °F /  -18.3 °C 1016.8 in /  34428.8 hPa WNW 3.2 mph /  5.1 km/h 6.4 mph /  10.3 km/h 92 % 0.0 in /  0 mm
04:54 0.0 °F /  -17.8 °C -1.1 °F /  -18.4 °C 1016.8 in /  34428.8 hPa Calm   1.6 mph /  2.6 km/h 92 % 0.0 in /  0 mm
05:00 0.0 °F /  -17.8 °C -1.1 °F /  -18.4 °C 1016.8 in /  34428.8 hPa WNW 7.9 mph /  12.7 km/h 8.0 mph /  12.9 km/h 92 % 0.0 in /  0 mm
05:06 0.0 °F /  -17.8 °C -1.1 °F /  -18.4 °C 1016.8 in /  34428.8 hPa WNW 3.2 mph /  5.1 km/h 3.2 mph /  5.1 km/h 92 % 0.0 in /  0 mm
05:12 -0.1 °F /  -17.8 °C -1.2 °F /  -18.4 °C 1017.2 in /  34442.4 hPa West 1.4 mph /  2.3 km/h 6.4 mph /  10.3 km/h 92 % 0.0 in /  0 mm
05:18 -0.1 °F /  -17.8 °C -1.2 °F /  -18.4 °C 1017.2 in /  34442.4 hPa WNW 3.2 mph /  5.1 km/h 3.2 mph /  5.1 km/h 92 % 0.0 in /  0 mm
05:24 -0.2 °F /  -17.9 °C -1.3 °F /  -18.5 °C 1017.2 in /  34442.4 hPa Calm   4.8 mph /  7.7 km/h 92 % 0.0 in /  0 mm
05:30 -0.2 °F /  -17.9 °C -1.3 °F /  -18.5 °C 1017.5 in /  34452.6 hPa WNW 8.0 mph /  12.9 km/h 8.0 mph /  12.9 km/h 92 % 0.0 in /  0 mm
05:36 -0.2 °F /  -17.9 °C -1.3 °F /  -18.5 °C 1017.5 in /  34452.6 hPa WNW 3.2 mph /  5.1 km/h 4.8 mph /  7.7 km/h 92 % 0.0 in /  0 mm
05:42 -0.2 °F /  -17.9 °C -1.3 °F /  -18.5 °C 1017.5 in /  34452.6 hPa WNW 3.2 mph /  5.1 km/h 4.8 mph /  7.7 km/h 92 % 0.0 in /  0 mm
05:48 -0.2 °F /  -17.9 °C -1.3 °F /  -18.5 °C 1017.5 in /  34452.6 hPa WNW 1.4 mph /  2.3 km/h 6.4 mph /  10.3 km/h 92 % 0.0 in /  0 mm
05:54 -0.2 °F /  -17.9 °C -1.3 °F /  -18.5 °C 1017.5 in /  34452.6 hPa WNW 6.4 mph /  10.3 km/h 6.4 mph /  10.3 km/h 92 % 0.0 in /  0 mm
06:00 -0.3 °F /  -17.9 °C -1.4 °F /  -18.6 °C 1017.5 in /  34452.6 hPa Calm   1.6 mph /  2.6 km/h 92 % 0.0 in /  0 mm
06:06 -0.3 °F /  -17.9 °C -1.4 °F /  -18.6 °C 1017.5 in /  34452.6 hPa West 1.4 mph /  2.3 km/h 1.6 mph /  2.6 km/h 92 % 0.0 in /  0 mm
06:12 -0.4 °F /  -18 °C -1.5 °F /  -18.6 °C 1017.5 in /  34452.6 hPa NW 1.4 mph /  2.3 km/h 6.4 mph /  10.3 km/h 92 % 0.0 in /  0 mm
06:18 -0.4 °F /  -18 °C -1.5 °F /  -18.6 °C 1017.8 in /  34462.7 hPa Calm     92 % 0.0 in /  0 mm
06:24 -0.4 °F /  -18 °C -1.5 °F /  -18.6 °C 1017.8 in /  34462.7 hPa Calm     92 % 0.0 in /  0 mm
06:30 -0.5 °F /  -18.1 °C -1.6 °F /  -18.7 °C 1017.8 in /  34462.7 hPa Calm   1.6 mph /  2.6 km/h 92 % 0.0 in /  0 mm
06:36 -0.6 °F /  -18.1 °C -1.7 °F /  -18.7 °C 1017.8 in /  34462.7 hPa Calm     92 % 0.0 in /  0 mm
06:42 -0.6 °F /  -18.1 °C -1.7 °F /  -18.7 °C 1017.8 in /  34462.7 hPa Calm   6.4 mph /  10.3 km/h 92 % 0.0 in /  0 mm
06:48 -0.6 °F /  -18.1 °C -1.7 °F /  -18.7 °C 1017.8 in /  34462.7 hPa Calm   1.6 mph /  2.6 km/h 92 % 0.0 in /  0 mm
06:54 -0.6 °F /  -18.1 °C -1.7 °F /  -18.7 °C 1017.8 in /  34462.7 hPa WNW 1.4 mph /  2.3 km/h 1.6 mph /  2.6 km/h 92 % 0.0 in /  0 mm
07:00 -0.6 °F /  -18.1 °C -1.7 °F /  -18.7 °C 1018.2 in /  34476.3 hPa Calm   1.6 mph /  2.6 km/h 92 % 0.0 in /  0 mm
07:06 -0.6 °F /  -18.1 °C -1.9 °F /  -18.8 °C 1018.2 in /  34476.3 hPa Calm     91 % 0.0 in /  0 mm
07:12 -0.7 °F /  -18.2 °C -1.8 °F /  -18.8 °C 1018.2 in /  34476.3 hPa Calm     92 % 0.0 in /  0 mm
07:18 -0.8 °F /  -18.2 °C -2.1 °F /  -18.9 °C 1018.2 in /  34476.3 hPa Calm     91 % 0.0 in /  0 mm
07:24 -0.8 °F /  -18.2 °C -1.9 °F /  -18.8 °C 1018.5 in /  34486.4 hPa WSW 1.4 mph /  2.3 km/h 3.2 mph /  5.1 km/h 92 % 0.0 in /  0 mm
07:30 -0.8 °F /  -18.2 °C -2.1 °F /  -18.9 °C 1018.5 in /  34486.4 hPa Calm     91 % 0.0 in /  0 mm
07:36 -0.9 °F /  -18.3 °C -2.0 °F /  -18.9 °C 1018.5 in /  34486.4 hPa Calm   1.6 mph /  2.6 km/h 92 % 0.0 in /  0 mm
07:42 -1.0 °F /  -18.3 °C -2.1 °F /  -18.9 °C 1018.8 in /  34496.6 hPa Calm     92 % 0.0 in /  0 mm
07:49 -1.1 °F /  -18.4 °C -2.2 °F /  -19 °C 1018.8 in /  34496.6 hPa Calm     92 % 0.0 in /  0 mm
07:55 -1.0 °F /  -18.3 °C -2.0 °F /  -18.9 °C 1018.8 in /  34496.6 hPa Calm   1.6 mph /  2.6 km/h 93 % 0.0 in /  0 mm
08:01 -0.8 °F /  -18.2 °C -1.8 °F /  -18.8 °C 1018.8 in /  34496.6 hPa Calm   1.6 mph /  2.6 km/h 93 % 0.0 in /  0 mm
08:07 -0.8 °F /  -18.2 °C -1.9 °F /  -18.8 °C 1018.8 in /  34496.6 hPa Calm   1.6 mph /  2.6 km/h 92 % 0.0 in /  0 mm
08:13 -0.8 °F /  -18.2 °C -1.9 °F /  -18.8 °C 1019.2 in /  34510.1 hPa Calm   1.6 mph /  2.6 km/h 92 % 0.0 in /  0 mm
08:19 -0.8 °F /  -18.2 °C -1.9 °F /  -18.8 °C 1019.2 in /  34510.1 hPa Calm   1.6 mph /  2.6 km/h 92 % 0.0 in /  0 mm
08:25 -0.8 °F /  -18.2 °C -1.9 °F /  -18.8 °C 1019.2 in /  34510.1 hPa Calm   1.6 mph /  2.6 km/h 92 % 0.0 in /  0 mm
08:31 -0.8 °F /  -18.2 °C -1.9 °F /  -18.8 °C 1019.2 in /  34510.1 hPa West 1.4 mph /  2.3 km/h 1.6 mph /  2.6 km/h 92 % 0.0 in /  0 mm
08:37 -0.9 °F /  -18.3 °C -2.0 °F /  -18.9 °C 1019.5 in /  34520.3 hPa Calm   1.6 mph /  2.6 km/h 92 % 0.0 in /  0 mm
08:43 -0.9 °F /  -18.3 °C -2.0 °F /  -18.9 °C 1019.5 in /  34520.3 hPa Calm   1.6 mph /  2.6 km/h 92 % 0.0 in /  0 mm
08:49 -0.7 °F /  -18.2 °C -1.7 °F /  -18.7 °C 1019.5 in /  34520.3 hPa Calm   1.6 mph /  2.6 km/h 93 % 0.0 in /  0 mm
08:55 -0.6 °F /  -18.1 °C -1.7 °F /  -18.7 °C 1019.5 in /  34520.3 hPa Calm   1.6 mph /  2.6 km/h 92 % 0.0 in /  0 mm
09:01 -0.4 °F /  -18 °C -1.5 °F /  -18.6 °C 1019.5 in /  34520.3 hPa West 1.4 mph /  2.3 km/h 1.6 mph /  2.6 km/h 92 % 0.0 in /  0 mm
09:07 -0.2 °F /  -17.9 °C -1.5 °F /  -18.6 °C 1019.5 in /  34520.3 hPa Calm   1.6 mph /  2.6 km/h 91 % 0.0 in /  0 mm
09:13 -0.1 °F /  -17.8 °C -1.4 °F /  -18.6 °C 1019.5 in /  34520.3 hPa West 1.4 mph /  2.3 km/h 3.2 mph /  5.1 km/h 91 % 0.0 in /  0 mm
09:19 0.2 °F /  -17.7 °C -1.2 °F /  -18.4 °C 1019.9 in /  34533.8 hPa Calm   1.6 mph /  2.6 km/h 90 % 0.0 in /  0 mm
09:25 0.3 °F /  -17.6 °C -1.1 °F /  -18.4 °C 1019.9 in /  34533.8 hPa Calm   4.8 mph /  7.7 km/h 90 % 0.0 in /  0 mm
09:31 0.5 °F /  -17.5 °C -1.1 °F /  -18.4 °C 1019.9 in /  34533.8 hPa NW 1.4 mph /  2.3 km/h 4.8 mph /  7.7 km/h 89 % 0.0 in /  0 mm
09:37 0.6 °F /  -17.4 °C -1.0 °F /  -18.3 °C 1019.9 in /  34533.8 hPa WSW 4.7 mph /  7.6 km/h 4.8 mph /  7.7 km/h 89 % 0.0 in /  0 mm
09:43 0.7 °F /  -17.4 °C -1.1 °F /  -18.4 °C 1019.9 in /  34533.8 hPa Calm   6.4 mph /  10.3 km/h 88 % 0.0 in /  0 mm
09:49 0.9 °F /  -17.3 °C -0.9 °F /  -18.3 °C 1020.2 in /  34544 hPa WNW 4.7 mph /  7.6 km/h 4.8 mph /  7.7 km/h 88 % 0.0 in /  0 mm
09:55 1.1 °F /  -17.2 °C -0.8 °F /  -18.2 °C 1020.2 in /  34544 hPa WNW 1.4 mph /  2.3 km/h 8.0 mph /  12.9 km/h 87 % 0.0 in /  0 mm
10:01 1.2 °F /  -17.1 °C -0.9 °F /  -18.3 °C 1020.2 in /  34544 hPa WNW 4.7 mph /  7.6 km/h 9.7 mph /  15.6 km/h 86 % 0.0 in /  0 mm
10:07 1.4 °F /  -17 °C -0.7 °F /  -18.2 °C 1020.2 in /  34544 hPa WNW 6.4 mph /  10.3 km/h 6.4 mph /  10.3 km/h 86 % 0.0 in /  0 mm
10:13 1.5 °F /  -16.9 °C -0.6 °F /  -18.1 °C 1020.2 in /  34544 hPa WNW 4.7 mph /  7.6 km/h 6.4 mph /  10.3 km/h 86 % 0.0 in /  0 mm
10:19 1.7 °F /  -16.8 °C -0.6 °F /  -18.1 °C 1020.2 in /  34544 hPa WNW 3.2 mph /  5.1 km/h 4.8 mph /  7.7 km/h 85 % 0.0 in /  0 mm
10:25 1.8 °F /  -16.8 °C -0.6 °F /  -18.1 °C 1020.2 in /  34544 hPa NW 9.7 mph /  15.6 km/h 9.7 mph /  15.6 km/h 84 % 0.0 in /  0 mm
10:32 2.0 °F /  -16.7 °C -0.6 °F /  -18.1 °C 1020.2 in /  34544 hPa WNW 3.2 mph /  5.1 km/h 8.0 mph /  12.9 km/h 83 % 0.0 in /  0 mm
10:38 2.1 °F /  -16.6 °C -0.7 °F /  -18.2 °C 1020.5 in /  34554.1 hPa WNW 7.9 mph /  12.7 km/h 11.3 mph /  18.2 km/h 82 % 0.0 in /  0 mm
10:44 2.2 °F /  -16.6 °C -0.4 °F /  -18 °C 1020.5 in /  34554.1 hPa NNW 3.2 mph /  5.1 km/h 8.0 mph /  12.9 km/h 83 % 0.0 in /  0 mm
10:50 2.4 °F /  -16.4 °C -0.4 °F /  -18 °C 1020.5 in /  34554.1 hPa NW 1.4 mph /  2.3 km/h 8.0 mph /  12.9 km/h 82 % 0.0 in /  0 mm
10:56 2.5 °F /  -16.4 °C -0.3 °F /  -17.9 °C 1020.5 in /  34554.1 hPa WNW 3.2 mph /  5.1 km/h 9.7 mph /  15.6 km/h 82 % 0.0 in /  0 mm
11:02 2.7 °F /  -16.3 °C -0.2 °F /  -17.9 °C 1020.5 in /  34554.1 hPa NW 4.7 mph /  7.6 km/h 8.0 mph /  12.9 km/h 81 % 0.0 in /  0 mm
11:08 2.8 °F /  -16.2 °C -0.1 °F /  -17.8 °C 1020.5 in /  34554.1 hPa WNW 9.7 mph /  15.6 km/h 14.5 mph /  23.3 km/h 81 % 0.0 in /  0 mm
11:14 2.9 °F /  -16.2 °C -0.2 °F /  -17.9 °C 1020.5 in /  34554.1 hPa NW 6.4 mph /  10.3 km/h 11.3 mph /  18.2 km/h 80 % 0.0 in /  0 mm
11:20 2.9 °F /  -16.2 °C -0.4 °F /  -18 °C 1020.5 in /  34554.1 hPa WNW 3.2 mph /  5.1 km/h 9.7 mph /  15.6 km/h 79 % 0.0 in /  0 mm
11:26 3.1 °F /  -16.1 °C -0.2 °F /  -17.9 °C 1020.5 in /  34554.1 hPa NW 6.4 mph /  10.3 km/h 8.0 mph /  12.9 km/h 79 % 0.0 in /  0 mm
11:32 3.3 °F /  -15.9 °C 0.0 °F /  -17.8 °C 1020.5 in /  34554.1 hPa WNW 4.7 mph /  7.6 km/h 8.0 mph /  12.9 km/h 79 % 0.0 in /  0 mm
11:38 3.4 °F /  -15.9 °C 0.1 °F /  -17.7 °C 1020.5 in /  34554.1 hPa NW 4.7 mph /  7.6 km/h 9.7 mph /  15.6 km/h 79 % 0.0 in /  0 mm
11:44 3.6 °F /  -15.8 °C 0.1 °F /  -17.7 °C 1020.9 in /  34567.7 hPa Calm   9.7 mph /  15.6 km/h 78 % 0.0 in /  0 mm
11:50 3.6 °F /  -15.8 °C -0.1 °F /  -17.8 °C 1020.9 in /  34567.7 hPa WNW 3.2 mph /  5.1 km/h 6.4 mph /  10.3 km/h 77 % 0.0 in /  0 mm
11:56 3.8 °F /  -15.7 °C 0.3 °F /  -17.6 °C 1020.9 in /  34567.7 hPa Calm   4.8 mph /  7.7 km/h 78 % 0.0 in /  0 mm
12:02 3.8 °F /  -15.7 °C 0.0 °F /  -17.8 °C 1020.9 in /  34567.7 hPa WNW 3.2 mph /  5.1 km/h 6.4 mph /  10.3 km/h 76 % 0.0 in /  0 mm
12:08 3.8 °F /  -15.7 °C -0.2 °F /  -17.9 °C 1020.9 in /  34567.7 hPa West 3.2 mph /  5.1 km/h 6.4 mph /  10.3 km/h 75 % 0.0 in /  0 mm
12:14 3.8 °F /  -15.7 °C 0.0 °F /  -17.8 °C 1020.9 in /  34567.7 hPa NW 3.2 mph /  5.1 km/h 8.0 mph /  12.9 km/h 76 % 0.0 in /  0 mm
12:20 4.1 °F /  -15.5 °C -0.3 °F /  -17.9 °C 1020.5 in /  34554.1 hPa NNE 6.4 mph /  10.3 km/h 8.0 mph /  12.9 km/h 73 % 0.0 in /  0 mm
12:26 4.2 °F /  -15.4 °C -0.2 °F /  -17.9 °C 1020.5 in /  34554.1 hPa WNW 6.4 mph /  10.3 km/h 8.0 mph /  12.9 km/h 73 % 0.0 in /  0 mm
12:32 4.3 °F /  -15.4 °C 0.1 °F /  -17.7 °C 1020.5 in /  34554.1 hPa WNW 3.2 mph /  5.1 km/h 4.8 mph /  7.7 km/h 74 % 0.0 in /  0 mm
12:38 4.4 °F /  -15.3 °C -1.0 °F /  -18.3 °C 1020.5 in /  34554.1 hPa WNW 7.9 mph /  12.7 km/h 11.3 mph /  18.2 km/h 68 % 0.0 in /  0 mm
12:44 4.3 °F /  -15.4 °C -0.9 °F /  -18.3 °C 1020.5 in /  34554.1 hPa North 6.4 mph /  10.3 km/h 6.4 mph /  10.3 km/h 69 % 0.0 in /  0 mm
12:50 4.3 °F /  -15.4 °C -0.9 °F /  -18.3 °C 1020.5 in /  34554.1 hPa WNW 1.4 mph /  2.3 km/h 4.8 mph /  7.7 km/h 69 % 0.0 in /  0 mm
12:56 4.6 °F /  -15.2 °C -0.6 °F /  -18.1 °C 1020.5 in /  34554.1 hPa NNE 4.7 mph /  7.6 km/h 11.3 mph /  18.2 km/h 69 % 0.0 in /  0 mm
13:02 4.3 °F /  -15.4 °C -2.3 °F /  -19.1 °C 1020.5 in /  34554.1 hPa WNW 6.4 mph /  10.3 km/h 11.3 mph /  18.2 km/h 62 % 0.0 in /  0 mm
13:08 4.2 °F /  -15.4 °C -1.6 °F /  -18.7 °C 1020.5 in /  34554.1 hPa Calm   8.0 mph /  12.9 km/h 66 % 0.0 in /  0 mm
13:14 4.6 °F /  -15.2 °C -1.6 °F /  -18.7 °C 1020.5 in /  34554.1 hPa WNW 3.2 mph /  5.1 km/h 6.4 mph /  10.3 km/h 64 % 0.0 in /  0 mm
13:20 4.6 °F /  -15.2 °C -1.6 °F /  -18.7 °C 1020.5 in /  34554.1 hPa WNW 7.9 mph /  12.7 km/h 8.0 mph /  12.9 km/h 64 % 0.0 in /  0 mm
13:26 4.3 °F /  -15.4 °C -1.3 °F /  -18.5 °C 1020.5 in /  34554.1 hPa Calm   6.4 mph /  10.3 km/h 67 % 0.0 in /  0 mm
13:32 4.3 °F /  -15.4 °C -1.5 °F /  -18.6 °C 1020.5 in /  34554.1 hPa NNW 3.2 mph /  5.1 km/h 4.8 mph /  7.7 km/h 66 % 0.0 in /  0 mm
13:38 4.6 °F /  -15.2 °C -1.0 °F /  -18.3 °C 1020.5 in /  34554.1 hPa NNW 4.7 mph /  7.6 km/h 4.8 mph /  7.7 km/h 67 % 0.0 in /  0 mm
13:44 4.4 °F /  -15.3 °C -1.8 °F /  -18.8 °C 1020.5 in /  34554.1 hPa West 1.4 mph /  2.3 km/h 11.3 mph /  18.2 km/h 64 % 0.0 in /  0 mm
13:50 4.3 °F /  -15.4 °C -1.7 °F /  -18.7 °C 1020.5 in /  34554.1 hPa NNW 9.7 mph /  15.6 km/h 9.7 mph /  15.6 km/h 65 % 0.0 in /  0 mm
13:56 4.2 °F /  -15.4 °C -2.2 °F /  -19 °C 1020.2 in /  34544 hPa WNW 3.2 mph /  5.1 km/h 14.5 mph /  23.3 km/h 63 % 0.0 in /  0 mm
14:02 4.2 °F /  -15.4 °C -1.8 °F /  -18.8 °C 1020.2 in /  34544 hPa WNW 11.1 mph /  17.9 km/h 11.3 mph /  18.2 km/h 65 % 0.0 in /  0 mm
14:08 4.4 °F /  -15.3 °C -1.6 °F /  -18.7 °C 1020.2 in /  34544 hPa NW 6.4 mph /  10.3 km/h 6.4 mph /  10.3 km/h 65 % 0.0 in /  0 mm
14:14 4.4 °F /  -15.3 °C -1.8 °F /  -18.8 °C 1020.2 in /  34544 hPa NNW 1.4 mph /  2.3 km/h 3.2 mph /  5.1 km/h 64 % 0.0 in /  0 mm
14:20 4.3 °F /  -15.4 °C -1.9 °F /  -18.8 °C 1020.2 in /  34544 hPa NE 3.2 mph /  5.1 km/h 8.0 mph /  12.9 km/h 64 % 0.0 in /  0 mm
14:26 4.4 °F /  -15.3 °C -2.0 °F /  -18.9 °C 1019.9 in /  34533.8 hPa West 4.7 mph /  7.6 km/h 6.4 mph /  10.3 km/h 63 % 0.0 in /  0 mm
14:32 4.4 °F /  -15.3 °C -2.0 °F /  -18.9 °C 1019.9 in /  34533.8 hPa West 1.4 mph /  2.3 km/h 8.0 mph /  12.9 km/h 63 % 0.0 in /  0 mm
14:38 4.6 °F /  -15.2 °C -1.4 °F /  -18.6 °C 1019.9 in /  34533.8 hPa North 3.2 mph /  5.1 km/h 4.8 mph /  7.7 km/h 65 % 0.0 in /  0 mm
14:44 4.9 °F /  -15.1 °C -1.3 °F /  -18.5 °C 1019.9 in /  34533.8 hPa WNW 3.2 mph /  5.1 km/h 6.4 mph /  10.3 km/h 64 % 0.0 in /  0 mm
14:50 4.8 °F /  -15.1 °C -1.9 °F /  -18.8 °C 1019.9 in /  34533.8 hPa Calm   4.8 mph /  7.7 km/h 62 % 0.0 in /  0 mm
14:56 4.7 °F /  -15.2 °C -1.5 °F /  -18.6 °C 1019.9 in /  34533.8 hPa WNW 1.4 mph /  2.3 km/h 6.4 mph /  10.3 km/h 64 % 0.0 in /  0 mm
15:02 4.5 °F /  -15.3 °C -2.4 °F /  -19.1 °C 1019.9 in /  34533.8 hPa NNW 3.2 mph /  5.1 km/h 8.0 mph /  12.9 km/h 61 % 0.0 in /  0 mm
15:08 4.6 °F /  -15.2 °C -2.3 °F /  -19.1 °C 1019.9 in /  34533.8 hPa Calm   3.2 mph /  5.1 km/h 61 % 0.0 in /  0 mm
15:14 4.7 °F /  -15.2 °C -2.2 °F /  -19 °C 1019.9 in /  34533.8 hPa ENE 1.4 mph /  2.3 km/h 4.8 mph /  7.7 km/h 61 % 0.0 in /  0 mm
15:20 4.7 °F /  -15.2 °C -2.2 °F /  -19 °C 1019.9 in /  34533.8 hPa Calm   4.8 mph /  7.7 km/h 61 % 0.0 in /  0 mm
15:26 5.0 °F /  -15 °C -1.5 °F /  -18.6 °C 1019.9 in /  34533.8 hPa Calm   3.2 mph /  5.1 km/h 63 % 0.0 in /  0 mm
15:32 5.2 °F /  -14.9 °C -1.7 °F /  -18.7 °C 1019.9 in /  34533.8 hPa North 7.9 mph /  12.7 km/h 8.0 mph /  12.9 km/h 61 % 0.0 in /  0 mm
15:38 4.8 °F /  -15.1 °C -1.4 °F /  -18.6 °C 1019.9 in /  34533.8 hPa NNW 4.7 mph /  7.6 km/h 9.7 mph /  15.6 km/h 64 % 0.0 in /  0 mm
15:44 4.8 °F /  -15.1 °C -1.4 °F /  -18.6 °C 1019.9 in /  34533.8 hPa North 4.7 mph /  7.6 km/h 6.4 mph /  10.3 km/h 64 % 0.0 in /  0 mm
15:50 4.8 °F /  -15.1 °C -1.6 °F /  -18.7 °C 1019.9 in /  34533.8 hPa NNE 3.2 mph /  5.1 km/h 6.4 mph /  10.3 km/h 63 % 0.0 in /  0 mm
15:56 4.7 °F /  -15.2 °C -1.3 °F /  -18.5 °C 1019.9 in /  34533.8 hPa NNW 3.2 mph /  5.1 km/h 4.8 mph /  7.7 km/h 65 % 0.0 in /  0 mm
16:02 4.5 °F /  -15.3 °C -1.3 °F /  -18.5 °C 1019.9 in /  34533.8 hPa Calm   1.6 mph /  2.6 km/h 66 % 0.0 in /  0 mm
16:08 4.6 °F /  -15.2 °C -1.2 °F /  -18.4 °C 1019.9 in /  34533.8 hPa NNW 3.2 mph /  5.1 km/h 3.2 mph /  5.1 km/h 66 % 0.0 in /  0 mm
16:14 4.9 °F /  -15.1 °C -1.3 °F /  -18.5 °C 1019.9 in /  34533.8 hPa WNW 1.4 mph /  2.3 km/h 8.0 mph /  12.9 km/h 64 % 0.0 in /  0 mm
16:20 5.1 °F /  -14.9 °C -1.6 °F /  -18.7 °C 1019.5 in /  34520.3 hPa NW 4.7 mph /  7.6 km/h 6.4 mph /  10.3 km/h 62 % 0.0 in /  0 mm
16:26 5.1 °F /  -14.9 °C -2.3 °F /  -19.1 °C 1019.5 in /  34520.3 hPa WNW 3.2 mph /  5.1 km/h 6.4 mph /  10.3 km/h 59 % 0.0 in /  0 mm
16:32 5.2 °F /  -14.9 °C -2.2 °F /  -19 °C 1019.5 in /  34520.3 hPa WNW 1.4 mph /  2.3 km/h 4.8 mph /  7.7 km/h 59 % 0.0 in /  0 mm
16:38 4.8 °F /  -15.1 °C -1.6 °F /  -18.7 °C 1019.5 in /  34520.3 hPa WNW 1.4 mph /  2.3 km/h 4.8 mph /  7.7 km/h 63 % 0.0 in /  0 mm
16:44 4.7 °F /  -15.2 °C -2.0 °F /  -18.9 °C 1019.5 in /  34520.3 hPa Calm   1.6 mph /  2.6 km/h 62 % 0.0 in /  0 mm
16:50 4.5 °F /  -15.3 °C -1.7 °F /  -18.7 °C 1019.5 in /  34520.3 hPa WNW 1.4 mph /  2.3 km/h 3.2 mph /  5.1 km/h 64 % 0.0 in /  0 mm
16:56 4.6 °F /  -15.2 °C -1.6 °F /  -18.7 °C 1019.5 in /  34520.3 hPa Calm   1.6 mph /  2.6 km/h 64 % 0.0 in /  0 mm
17:02 4.6 °F /  -15.2 °C -1.8 °F /  -18.8 °C 1019.5 in /  34520.3 hPa Calm   1.6 mph /  2.6 km/h 63 % 0.0 in /  0 mm
17:08 4.4 °F /  -15.3 °C -2.0 °F /  -18.9 °C 1019.5 in /  34520.3 hPa Calm   1.6 mph /  2.6 km/h 63 % 0.0 in /  0 mm
17:14 4.4 °F /  -15.3 °C -2.0 °F /  -18.9 °C 1019.5 in /  34520.3 hPa Calm   1.6 mph /  2.6 km/h 63 % 0.0 in /  0 mm
17:20 4.3 °F /  -15.4 °C -1.5 °F /  -18.6 °C 1019.5 in /  34520.3 hPa Calm     66 % 0.0 in /  0 mm
17:27 4.0 °F /  -15.6 °C -1.8 °F /  -18.8 °C 1019.5 in /  34520.3 hPa Calm     66 % 0.0 in /  0 mm
17:33 3.8 °F /  -15.7 °C -2.4 °F /  -19.1 °C 1019.5 in /  34520.3 hPa Calm   1.6 mph /  2.6 km/h 64 % 0.0 in /  0 mm
17:39 3.7 °F /  -15.7 °C -2.5 °F /  -19.2 °C 1019.5 in /  34520.3 hPa Calm   1.6 mph /  2.6 km/h 64 % 0.0 in /  0 mm
17:45 3.4 °F /  -15.9 °C -2.1 °F /  -18.9 °C 1019.5 in /  34520.3 hPa Calm     67 % 0.0 in /  0 mm
17:51 3.3 °F /  -15.9 °C -2.4 °F /  -19.1 °C 1019.5 in /  34520.3 hPa Calm     66 % 0.0 in /  0 mm
17:57 3.1 °F /  -16.1 °C -1.8 °F /  -18.8 °C 1019.5 in /  34520.3 hPa Calm     70 % 0.0 in /  0 mm
18:03 2.8 °F /  -16.2 °C -2.5 °F /  -19.2 °C 1019.5 in /  34520.3 hPa Calm     68 % 0.0 in /  0 mm
18:09 2.8 °F /  -16.2 °C -2.7 °F /  -19.3 °C 1019.5 in /  34520.3 hPa Calm     67 % 0.0 in /  0 mm
18:15 2.9 °F /  -16.2 °C -2.8 °F /  -19.3 °C 1019.9 in /  34533.8 hPa Calm     66 % 0.0 in /  0 mm
18:21 2.7 °F /  -16.3 °C -2.8 °F /  -19.3 °C 1019.9 in /  34533.8 hPa Calm     67 % 0.0 in /  0 mm
18:27 2.4 °F /  -16.4 °C -2.7 °F /  -19.3 °C 1019.9 in /  34533.8 hPa Calm     69 % 0.0 in /  0 mm
18:33 2.1 °F /  -16.6 °C -2.6 °F /  -19.2 °C 1019.9 in /  34533.8 hPa Calm     71 % 0.0 in /  0 mm
18:39 1.7 °F /  -16.8 °C -2.8 °F /  -19.3 °C 1019.9 in /  34533.8 hPa Calm     72 % 0.0 in /  0 mm
18:45 1.4 °F /  -17 °C -2.7 °F /  -19.3 °C 1019.9 in /  34533.8 hPa SW 1.4 mph /  2.3 km/h 1.6 mph /  2.6 km/h 74 % 0.0 in /  0 mm
18:51 1.2 °F /  -17.1 °C -2.7 °F /  -19.3 °C 1019.9 in /  34533.8 hPa WNW 1.4 mph /  2.3 km/h 3.2 mph /  5.1 km/h 75 % 0.0 in /  0 mm
18:57 1.2 °F /  -17.1 °C -2.6 °F /  -19.2 °C 1019.9 in /  34533.8 hPa WNW 1.4 mph /  2.3 km/h 3.2 mph /  5.1 km/h 76 % 0.0 in /  0 mm
19:03 1.3 °F /  -17.1 °C -2.5 °F /  -19.2 °C 1019.9 in /  34533.8 hPa Calm   1.6 mph /  2.6 km/h 76 % 0.0 in /  0 mm
19:09 0.9 °F /  -17.3 °C -2.7 °F /  -19.3 °C 1019.9 in /  34533.8 hPa Calm   1.6 mph /  2.6 km/h 77 % 0.0 in /  0 mm
19:15 0.8 °F /  -17.3 °C -2.6 °F /  -19.2 °C 1019.9 in /  34533.8 hPa Calm   1.6 mph /  2.6 km/h 78 % 0.0 in /  0 mm
19:21 1.0 °F /  -17.2 °C -2.4 °F /  -19.1 °C 1019.9 in /  34533.8 hPa Calm     78 % 0.0 in /  0 mm
19:28 0.9 °F /  -17.3 °C -2.5 °F /  -19.2 °C 1019.9 in /  34533.8 hPa Calm     78 % 0.0 in /  0 mm
19:34 0.7 °F /  -17.4 °C -2.5 °F /  -19.2 °C 1019.9 in /  34533.8 hPa Calm     79 % 0.0 in /  0 mm
19:40 0.8 °F /  -17.3 °C -2.3 °F /  -19.1 °C 1019.9 in /  34533.8 hPa Calm   1.6 mph /  2.6 km/h 80 % 0.0 in /  0 mm
19:46 0.9 °F /  -17.3 °C -2.2 °F /  -19 °C 1020.2 in /  34544 hPa Calm     80 % 0.0 in /  0 mm
19:52 0.7 °F /  -17.4 °C -2.5 °F /  -19.2 °C 1019.9 in /  34533.8 hPa Calm     79 % 0.0 in /  0 mm
19:58 0.4 °F /  -17.6 °C -2.6 °F /  -19.2 °C 1019.9 in /  34533.8 hPa Calm     80 % 0.0 in /  0 mm
20:04 0.5 °F /  -17.5 °C -2.4 °F /  -19.1 °C 1019.9 in /  34533.8 hPa Calm     81 % 0.0 in /  0 mm
20:10 0.6 °F /  -17.4 °C -2.3 °F /  -19.1 °C 1019.9 in /  34533.8 hPa Calm     81 % 0.0 in /  0 mm
20:16 0.4 °F /  -17.6 °C -2.5 °F /  -19.2 °C 1019.9 in /  34533.8 hPa Calm     81 % 0.0 in /  0 mm
20:22 0.3 °F /  -17.6 °C -2.4 °F /  -19.1 °C 1019.9 in /  34533.8 hPa Calm     82 % 0.0 in /  0 mm
20:28 0.2 °F /  -17.7 °C -2.5 °F /  -19.2 °C 1019.9 in /  34533.8 hPa Calm     82 % 0.0 in /  0 mm
20:34 -0.2 °F /  -17.9 °C -2.6 °F /  -19.2 °C 1019.9 in /  34533.8 hPa Calm     84 % 0.0 in /  0 mm
20:40 -0.5 °F /  -18.1 °C -2.6 °F /  -19.2 °C 1019.9 in /  34533.8 hPa Calm     86 % 0.0 in /  0 mm
20:46 -0.7 °F /  -18.2 °C -2.7 °F /  -19.3 °C 1019.9 in /  34533.8 hPa Calm     86 % 0.0 in /  0 mm
20:52 -1.0 °F /  -18.3 °C -3.0 °F /  -19.4 °C 1019.9 in /  34533.8 hPa Calm     86 % 0.0 in /  0 mm
20:58 -1.3 °F /  -18.5 °C -3.0 °F /  -19.4 °C 1019.9 in /  34533.8 hPa Calm     88 % 0.0 in /  0 mm
21:04 -1.3 °F /  -18.5 °C -2.9 °F /  -19.4 °C 1019.9 in /  34533.8 hPa Calm     89 % 0.0 in /  0 mm
21:10 -1.4 °F /  -18.6 °C -3.0 °F /  -19.4 °C 1019.9 in /  34533.8 hPa Calm     89 % 0.0 in /  0 mm
21:16 -1.6 °F /  -18.7 °C -3.0 °F /  -19.4 °C 1019.9 in /  34533.8 hPa Calm     90 % 0.0 in /  0 mm
21:22 -1.6 °F /  -18.7 °C -3.0 °F /  -19.4 °C 1019.9 in /  34533.8 hPa Calm     90 % 0.0 in /  0 mm
21:28 -1.6 °F /  -18.7 °C -2.9 °F /  -19.4 °C 1019.9 in /  34533.8 hPa Calm     91 % 0.0 in /  0 mm
21:34 -1.6 °F /  -18.7 °C -2.9 °F /  -19.4 °C 1019.9 in /  34533.8 hPa Calm     91 % 0.0 in /  0 mm
21:40 -1.5 °F /  -18.6 °C -2.8 °F /  -19.3 °C 1019.9 in /  34533.8 hPa Calm     91 % 0.0 in /  0 mm
21:46 -1.3 °F /  -18.5 °C -2.6 °F /  -19.2 °C 1019.9 in /  34533.8 hPa Calm     91 % 0.0 in /  0 mm
21:52 -1.3 °F /  -18.5 °C -2.6 °F /  -19.2 °C 1019.9 in /  34533.8 hPa Calm     91 % 0.0 in /  0 mm
21:59 -1.3 °F /  -18.5 °C -2.6 °F /  -19.2 °C 1019.9 in /  34533.8 hPa Calm     91 % 0.0 in /  0 mm
22:05 -1.3 °F /  -18.5 °C -2.6 °F /  -19.2 °C 1019.9 in /  34533.8 hPa Calm     91 % 0.0 in /  0 mm
22:11 -1.4 °F /  -18.6 °C -2.7 °F /  -19.3 °C 1019.9 in /  34533.8 hPa Calm     91 % 0.0 in /  0 mm
22:17 -1.4 °F /  -18.6 °C -2.7 °F /  -19.3 °C 1019.9 in /  34533.8 hPa Calm     91 % 0.0 in /  0 mm
22:23 -1.6 °F /  -18.7 °C -2.9 °F /  -19.4 °C 1019.9 in /  34533.8 hPa Calm     91 % 0.0 in /  0 mm
22:29 -1.4 °F /  -18.6 °C -2.7 °F /  -19.3 °C 1019.9 in /  34533.8 hPa Calm     91 % 0.0 in /  0 mm
22:35 -1.4 °F /  -18.6 °C -2.8 °F /  -19.3 °C 1019.5 in /  34520.3 hPa Calm     90 % 0.0 in /  0 mm
22:41 -1.6 °F /  -18.7 °C -2.9 °F /  -19.4 °C 1019.5 in /  34520.3 hPa Calm     91 % 0.0 in /  0 mm
22:47 -1.8 °F /  -18.8 °C -3.1 °F /  -19.5 °C 1019.5 in /  34520.3 hPa Calm     91 % 0.0 in /  0 mm
22:53 -1.8 °F /  -18.8 °C -2.9 °F /  -19.4 °C 1019.5 in /  34520.3 hPa Calm     92 % 0.0 in /  0 mm
22:59 -1.9 °F /  -18.8 °C -3.0 °F /  -19.4 °C 1019.5 in /  34520.3 hPa Calm     92 % 0.0 in /  0 mm
23:05 -2.0 °F /  -18.9 °C -3.1 °F /  -19.5 °C 1019.5 in /  34520.3 hPa Calm     92 % 0.0 in /  0 mm
23:11 -2.1 °F /  -18.9 °C -3.2 °F /  -19.6 °C 1019.5 in /  34520.3 hPa Calm     92 % 0.0 in /  0 mm
23:17 -2.0 °F /  -18.9 °C -3.1 °F /  -19.5 °C 1019.5 in /  34520.3 hPa Calm   1.6 mph /  2.6 km/h 92 % 0.0 in /  0 mm
23:23 -2.0 °F /  -18.9 °C -3.1 °F /  -19.5 °C 1019.5 in /  34520.3 hPa Calm     92 % 0.0 in /  0 mm
23:29 -2.0 °F /  -18.9 °C -3.1 °F /  -19.5 °C 1019.5 in /  34520.3 hPa Calm     92 % 0.0 in /  0 mm
23:35 -2.0 °F /  -18.9 °C -3.1 °F /  -19.5 °C 1019.2 in /  34510.1 hPa Calm     92 % 0.0 in /  0 mm
23:41 -2.1 °F /  -18.9 °C -3.2 °F /  -19.6 °C 1019.2 in /  34510.1 hPa Calm     92 % 0.0 in /  0 mm
23:47 -2.1 °F /  -18.9 °C -3.2 °F /  -19.6 °C 1019.2 in /  34510.1 hPa Calm     92 % 0.0 in /  0 mm
23:53 -2.1 °F /  -18.9 °C -3.2 °F /  -19.6 °C 1019.2 in /  34510.1 hPa Calm     92 % 0.0 in /  0 mm
23:59 -2.2 °F /  -19 °C -3.3 °F /  -19.6 °C 1019.2 in /  34510.1 hPa Calm     92 % 0.0 in /  0 mm
Meteo18
Compliments of Weather Underground - 4 mb

Script developed by  Jim McMurry - jmcmurry@mwt.net Adapted for the template by  Wim van der Kuil - Leuven-Template.eu

You find our weather info also at:

European Weather Network

Weather Underground

Equipment we use:

Weather-station
Davis Vue

Weather-program
Meteobridge

Weather-server
Raspberry PI 2 B+

Provider
1 and 1

Davis Vue

Meteobridge

Raspberry PI 2 B+

1 and 1